createdAt,value
2024-01-16T00:00:55.176Z,-1.46
2024-01-16T00:03:23.209Z,-1.81
2024-01-16T00:05:50.117Z,-1.10
2024-01-16T00:08:16.825Z,-0.81
2024-01-16T00:10:43.655Z,-2.10
2024-01-16T00:13:10.345Z,-0.07
2024-01-16T00:15:37.005Z,0.00
2024-01-16T00:18:04.016Z,-0.01
2024-01-16T00:20:32.003Z,-0.30
2024-01-16T00:22:58.653Z,-2.13
2024-01-16T00:25:25.325Z,-1.72
2024-01-16T00:27:51.959Z,-0.03
2024-01-16T00:30:19.164Z,0.16
2024-01-16T00:32:45.825Z,0.08
2024-01-16T00:35:12.550Z,0.06
2024-01-16T00:37:40.734Z,0.05
2024-01-16T00:40:09.966Z,-0.04
2024-01-16T00:42:36.752Z,-0.70
2024-01-16T00:45:03.610Z,-1.53
2024-01-16T00:47:30.368Z,-0.06
2024-01-16T00:49:57.083Z,0.09
2024-01-16T00:52:23.769Z,0.17
2024-01-16T00:54:51.752Z,0.18
2024-01-16T00:57:20.587Z,0.24
2024-01-16T00:59:47.794Z,0.17
2024-01-16T01:02:15.231Z,0.09
2024-01-16T01:04:44.987Z,-1.09
2024-01-16T01:07:14.526Z,-0.25
2024-01-16T01:09:41.582Z,0.12
2024-01-16T01:12:09.657Z,0.12
2024-01-16T01:14:36.428Z,0.07
2024-01-16T01:17:03.508Z,0.17
2024-01-16T01:19:30.294Z,0.22
2024-01-16T01:21:56.969Z,0.17
2024-01-16T01:24:23.631Z,0.16
2024-01-16T01:26:50.249Z,0.17
2024-01-16T01:29:18.525Z,-0.18
2024-01-16T01:31:48.614Z,0.21
2024-01-16T01:34:15.551Z,0.21
2024-01-16T01:36:42.440Z,0.26
2024-01-16T01:39:09.054Z,0.26
2024-01-16T01:41:35.828Z,0.19
2024-01-16T01:44:02.530Z,0.24
2024-01-16T01:46:33.030Z,0.21
2024-01-16T01:48:59.890Z,-0.20
2024-01-16T01:51:26.650Z,0.17
2024-01-16T01:53:54.070Z,0.19
2024-01-16T01:56:21.927Z,0.23
2024-01-16T01:58:53.391Z,0.12
2024-01-16T02:01:22.393Z,-1.53
2024-01-16T02:03:52.184Z,-0.10
2024-01-16T02:06:19.402Z,0.13
2024-01-16T02:08:46.669Z,0.18
2024-01-16T02:11:13.509Z,0.19
2024-01-16T02:13:40.211Z,0.23
2024-01-16T02:16:07.239Z,0.21
2024-01-16T02:18:33.959Z,0.22
2024-01-16T02:21:06.896Z,0.20
2024-01-16T02:23:35.632Z,0.25
2024-01-16T02:26:03.990Z,0.24
2024-01-16T02:28:30.631Z,0.22
2024-01-16T02:30:57.698Z,0.25
2024-01-16T02:33:24.697Z,0.23
2024-01-16T02:35:51.504Z,0.22
2024-01-16T02:38:18.281Z,0.21
2024-01-16T02:40:46.793Z,0.21
2024-01-16T02:43:13.424Z,0.20
2024-01-16T02:45:40.021Z,0.24
2024-01-16T02:48:07.311Z,0.31
2024-01-16T02:50:34.369Z,0.25
2024-01-16T02:53:01.040Z,-0.01
2024-01-16T02:55:27.690Z,0.18
2024-01-16T02:57:55.658Z,0.20
2024-01-16T03:00:23.817Z,0.22
2024-01-16T03:02:50.504Z,0.23
2024-01-16T03:05:17.414Z,0.22
2024-01-16T03:07:44.104Z,0.24
2024-01-16T03:10:10.818Z,0.21
2024-01-16T03:12:37.440Z,0.24
2024-01-16T03:15:06.909Z,0.23
2024-01-16T03:17:33.572Z,0.22
2024-01-16T03:20:00.243Z,0.21
2024-01-16T03:22:26.877Z,0.20
2024-01-16T03:24:53.514Z,0.25
2024-01-16T03:27:21.094Z,0.21
2024-01-16T03:29:47.845Z,0.20
2024-01-16T03:32:16.032Z,0.21
2024-01-16T03:34:42.714Z,0.24
2024-01-16T03:37:09.609Z,0.21
2024-01-16T03:39:36.374Z,0.22
2024-01-16T03:42:03.121Z,0.15
2024-01-16T03:44:29.766Z,0.20
2024-01-16T03:46:56.419Z,0.17
2024-01-16T03:49:24.644Z,0.21
2024-01-16T03:51:52.648Z,0.19
2024-01-16T03:54:19.262Z,0.17
2024-01-16T03:56:45.915Z,0.21
2024-01-16T03:59:12.597Z,0.17
2024-01-16T04:01:39.200Z,0.19
2024-01-16T04:04:08.733Z,0.17
2024-01-16T04:06:36.836Z,0.18
2024-01-16T04:09:04.172Z,0.18
2024-01-16T04:11:31.008Z,0.16
2024-01-16T04:13:57.803Z,0.19
2024-01-16T04:16:24.556Z,0.17
2024-01-16T04:18:51.262Z,0.16
2024-01-16T04:21:20.526Z,0.18
2024-01-16T04:23:48.933Z,0.17
2024-01-16T04:26:15.725Z,0.13
2024-01-16T04:28:43.869Z,0.16
2024-01-16T04:31:12.911Z,0.14
2024-01-16T04:33:40.326Z,0.14
2024-01-16T04:36:08.132Z,0.14
2024-01-16T04:38:34.851Z,0.13
2024-01-16T04:41:03.923Z,0.13
2024-01-16T04:43:30.549Z,0.13
2024-01-16T04:45:58.215Z,0.12
2024-01-16T04:48:25.941Z,0.13
2024-01-16T04:50:52.704Z,0.15
2024-01-16T04:53:19.420Z,0.10
2024-01-16T04:55:46.155Z,0.11
2024-01-16T04:58:14.220Z,0.11
2024-01-16T05:00:40.870Z,0.10
2024-01-16T05:03:07.516Z,0.12
2024-01-16T05:05:34.258Z,0.15
2024-01-16T05:08:02.209Z,0.09
2024-01-16T05:10:28.888Z,0.11
2024-01-16T05:12:55.488Z,0.11
2024-01-16T05:15:23.791Z,0.08
2024-01-16T05:17:50.637Z,0.08
2024-01-16T05:20:17.678Z,0.08
2024-01-16T05:22:44.384Z,0.07
2024-01-16T05:25:11.198Z,0.09
2024-01-16T05:27:37.898Z,0.07
2024-01-16T05:30:05.524Z,0.06
2024-01-16T05:32:33.701Z,0.09
2024-01-16T05:35:00.409Z,0.07
2024-01-16T05:37:27.037Z,0.07
2024-01-16T05:39:53.680Z,0.05
2024-01-16T05:42:20.353Z,0.06
2024-01-16T05:44:47.046Z,0.06
2024-01-16T05:47:13.738Z,0.05
2024-01-16T05:49:43.010Z,0.04
2024-01-16T05:52:09.867Z,0.05
2024-01-16T05:54:36.557Z,0.03
2024-01-16T05:57:03.766Z,0.02
2024-01-16T05:59:30.473Z,0.03
2024-01-16T06:01:57.135Z,0.04
2024-01-16T06:04:23.834Z,0.03
2024-01-16T06:06:51.904Z,0.04
2024-01-16T06:09:19.563Z,0.02
2024-01-16T06:11:46.425Z,-0.01
2024-01-16T06:14:13.835Z,0.04
2024-01-16T06:16:40.598Z,0.03
2024-01-16T06:19:08.943Z,0.00
2024-01-16T06:21:35.603Z,-0.03
2024-01-16T06:24:03.817Z,-0.01
2024-01-16T06:26:30.472Z,-0.03
2024-01-16T06:28:57.126Z,-0.01
2024-01-16T06:31:25.782Z,-0.02
2024-01-16T06:33:52.649Z,-0.04
2024-01-16T06:36:19.313Z,-0.03
2024-01-16T06:38:46.068Z,-0.05
2024-01-16T06:41:14.161Z,-0.02
2024-01-16T06:43:40.779Z,-0.03
2024-01-16T06:46:07.448Z,0.00
2024-01-16T06:48:36.918Z,-0.02
2024-01-16T06:51:03.937Z,-0.02
2024-01-16T06:53:30.632Z,-0.07
2024-01-16T06:55:57.345Z,-0.07
2024-01-16T06:58:25.319Z,-0.04
2024-01-16T07:00:51.988Z,-0.74
2024-01-16T07:03:19.629Z,-0.13
2024-01-16T07:05:46.634Z,-0.11
2024-01-16T07:08:13.420Z,-0.10
2024-01-16T07:10:40.048Z,-0.09
2024-01-16T07:13:08.468Z,-0.07
2024-01-16T07:15:36.474Z,-0.04
2024-01-16T07:18:03.752Z,-0.10
2024-01-16T07:20:30.515Z,-0.10
2024-01-16T07:22:57.214Z,-0.12
2024-01-16T07:25:23.998Z,-0.11
2024-01-16T07:27:50.970Z,-0.10
2024-01-16T07:30:17.892Z,-0.12
2024-01-16T07:32:46.224Z,-0.12
2024-01-16T07:35:13.067Z,-0.12
2024-01-16T07:37:40.017Z,-0.12
2024-01-16T07:40:10.597Z,-0.13
2024-01-16T07:42:37.338Z,-0.13
2024-01-16T07:45:05.527Z,-0.12
2024-01-16T07:47:33.020Z,-0.13
2024-01-16T07:50:02.625Z,-0.12
2024-01-16T07:52:30.508Z,-0.14
2024-01-16T07:54:57.139Z,-0.10
2024-01-16T07:57:23.817Z,-0.14
2024-01-16T07:59:50.544Z,-0.06
2024-01-16T08:02:18.406Z,-0.15
2024-01-16T08:04:45.142Z,-0.12
2024-01-16T08:07:13.096Z,-0.07
2024-01-16T08:09:39.802Z,-0.14
2024-01-16T08:12:07.499Z,-0.14
2024-01-16T08:14:34.300Z,-0.26
2024-01-16T08:17:00.940Z,-0.17
2024-01-16T08:19:27.702Z,-0.13
2024-01-16T08:21:54.479Z,-0.14
2024-01-16T08:24:22.490Z,-0.14
2024-01-16T08:26:49.156Z,0.01
2024-01-16T08:29:15.800Z,-0.13
2024-01-16T08:31:42.492Z,-0.10
2024-01-16T08:34:09.313Z,-0.03
2024-01-16T08:36:36.112Z,-0.13
2024-01-16T08:39:02.752Z,-0.12
2024-01-16T08:41:31.043Z,-0.16
2024-01-16T08:43:57.816Z,0.15
2024-01-16T08:46:24.477Z,-0.11
2024-01-16T08:48:51.249Z,-0.12
2024-01-16T08:51:17.923Z,-0.13
2024-01-16T08:53:44.665Z,-0.13
2024-01-16T08:56:13.351Z,-0.12
2024-01-16T08:58:41.793Z,-0.13
2024-01-16T09:01:08.762Z,-0.10
2024-01-16T09:03:35.829Z,-0.11
2024-01-16T09:06:03.346Z,2.05
2024-01-16T09:08:30.516Z,3.02
2024-01-16T09:10:57.895Z,0.71
2024-01-16T09:13:24.702Z,0.23
2024-01-16T09:15:52.688Z,0.27
2024-01-16T09:18:19.593Z,0.81
2024-01-16T09:20:46.447Z,0.61
2024-01-16T09:23:13.857Z,0.56
2024-01-16T09:25:40.602Z,0.28
2024-01-16T09:28:07.738Z,0.45
2024-01-16T09:30:34.652Z,0.15
2024-01-16T09:33:04.385Z,0.06
2024-01-16T09:35:31.221Z,1.71
2024-01-16T09:37:57.894Z,1.74
2024-01-16T09:40:24.528Z,1.64
2024-01-16T09:42:51.299Z,4.51
2024-01-16T09:45:21.631Z,5.28
2024-01-16T09:47:53.832Z,3.95
2024-01-16T09:50:23.499Z,3.23
2024-01-16T09:52:50.480Z,2.55
2024-01-16T09:55:17.407Z,1.67
2024-01-16T09:57:47.098Z,0.69
2024-01-16T10:00:14.450Z,0.39
2024-01-16T10:02:42.102Z,0.23
2024-01-16T10:05:10.336Z,0.74
2024-01-16T10:07:39.938Z,1.57
2024-01-16T10:10:07.803Z,0.90
2024-01-16T10:12:34.711Z,0.46
2024-01-16T10:15:01.846Z,0.25
2024-01-16T10:17:37.482Z,0.19
2024-01-16T10:20:06.012Z,0.40
2024-01-16T10:22:33.124Z,0.30
2024-01-16T10:25:08.718Z,0.18
2024-01-16T10:27:36.183Z,0.20
2024-01-16T10:30:04.932Z,0.40
2024-01-16T10:32:34.192Z,0.40
2024-01-16T10:35:05.879Z,0.30
2024-01-16T10:37:42.548Z,0.19
2024-01-16T10:40:12.073Z,0.19
2024-01-16T10:42:39.492Z,0.31
2024-01-16T10:45:07.244Z,0.20
2024-01-16T10:47:38.211Z,0.23
2024-01-16T10:50:07.243Z,0.16
2024-01-16T10:52:35.684Z,0.17
2024-01-16T10:55:06.103Z,0.22
2024-01-16T10:57:35.035Z,0.24
2024-01-16T11:00:05.794Z,0.42
2024-01-16T11:02:38.629Z,0.60
2024-01-16T11:05:07.130Z,0.76
2024-01-16T11:07:35.697Z,1.58
2024-01-16T11:10:03.549Z,1.78
2024-01-16T11:12:31.589Z,2.09
2024-01-16T11:15:02.360Z,1.73
2024-01-16T11:17:31.975Z,1.71
2024-01-16T11:20:13.237Z,1.59
2024-01-16T11:22:47.339Z,2.14
2024-01-16T11:25:15.469Z,1.80
2024-01-16T11:27:43.195Z,2.13
2024-01-16T11:30:12.668Z,2.50
2024-01-16T11:32:41.717Z,2.52
2024-01-16T11:35:09.311Z,2.30
2024-01-16T11:37:38.871Z,2.20
2024-01-16T11:40:25.629Z,2.12
2024-01-16T11:42:54.351Z,1.62
2024-01-16T11:45:51.455Z,1.86
2024-01-16T11:48:19.834Z,1.12
2024-01-16T11:50:47.283Z,0.92
2024-01-16T11:53:41.649Z,0.92
2024-01-16T11:56:38.160Z,0.85
2024-01-16T11:59:39.905Z,1.14
2024-01-16T12:02:15.337Z,0.74
2024-01-16T12:04:43.103Z,0.57
2024-01-16T12:07:10.037Z,1.04
2024-01-16T12:09:36.715Z,1.39
2024-01-16T12:12:04.356Z,1.62
2024-01-16T12:14:31.462Z,1.58
2024-01-16T12:17:12.131Z,2.14
2024-01-16T12:19:41.447Z,2.09
2024-01-16T12:22:10.801Z,1.63
2024-01-16T12:24:38.023Z,1.70
2024-01-16T12:27:05.545Z,2.03
2024-01-16T12:29:32.663Z,1.27
2024-01-16T12:32:11.012Z,1.55
2024-01-16T12:34:46.854Z,1.83
2024-01-16T12:37:13.942Z,1.15
2024-01-16T12:39:42.580Z,0.55
2024-01-16T12:42:11.009Z,0.71
2024-01-16T12:44:37.734Z,0.94
2024-01-16T12:47:05.123Z,0.87
2024-01-16T12:49:33.456Z,0.69
2024-01-16T12:52:16.328Z,0.31
2024-01-16T12:54:43.014Z,0.75
2024-01-16T12:57:14.907Z,0.89
2024-01-16T12:59:41.701Z,1.57
2024-01-16T13:02:08.458Z,1.21
2024-01-16T13:04:36.538Z,1.57
2024-01-16T13:07:04.523Z,1.33
2024-01-16T13:09:31.606Z,0.60
2024-01-16T13:11:59.798Z,1.20
2024-01-16T13:14:27.078Z,1.81
2024-01-16T13:16:57.844Z,1.71
2024-01-16T13:19:25.219Z,1.90
2024-01-16T13:21:53.751Z,1.59
2024-01-16T13:24:22.915Z,0.93
2024-01-16T13:26:50.152Z,0.68
2024-01-16T13:29:17.210Z,0.80
2024-01-16T13:31:44.857Z,0.61
2024-01-16T13:34:11.781Z,0.73
2024-01-16T13:36:53.886Z,0.83
2024-01-16T13:39:26.623Z,0.83
2024-01-16T13:41:53.640Z,0.74
2024-01-16T13:44:20.470Z,0.74
2024-01-16T13:46:58.098Z,0.69
2024-01-16T13:49:34.595Z,0.74
2024-01-16T13:52:01.756Z,0.74
2024-01-16T13:54:29.760Z,0.70
2024-01-16T13:57:03.395Z,0.75
2024-01-16T13:59:34.508Z,0.72
2024-01-16T14:02:03.033Z,0.68
2024-01-16T14:04:29.774Z,0.75
2024-01-16T14:07:10.331Z,0.70
2024-01-16T14:09:43.129Z,0.75
2024-01-16T14:12:10.954Z,0.63
2024-01-16T14:14:39.703Z,0.68
2024-01-16T14:17:06.629Z,0.67
2024-01-16T14:19:35.675Z,0.66
2024-01-16T14:22:02.500Z,0.67
2024-01-16T14:24:29.085Z,0.67
2024-01-16T14:27:00.015Z,0.64
2024-01-16T14:29:28.079Z,0.60
2024-01-16T14:31:57.394Z,0.66
2024-01-16T14:34:24.745Z,0.64
2024-01-16T14:36:51.785Z,0.63
2024-01-16T14:39:23.237Z,0.64
2024-01-16T14:41:50.076Z,0.64
2024-01-16T14:44:18.237Z,0.67
2024-01-16T14:46:47.043Z,0.64
2024-01-16T14:49:15.436Z,0.63
2024-01-16T14:51:42.406Z,0.63
2024-01-16T14:54:10.018Z,0.63
2024-01-16T14:56:36.858Z,0.65
2024-01-16T14:59:04.138Z,0.62
2024-01-16T15:01:32.247Z,0.62
2024-01-16T15:03:59.468Z,0.63
2024-01-16T15:06:28.005Z,0.64
2024-01-16T15:08:55.432Z,0.63
2024-01-16T15:11:22.713Z,0.63
2024-01-16T15:13:50.537Z,0.66
2024-01-16T15:16:18.063Z,0.66
2024-01-16T15:18:46.285Z,0.66
2024-01-16T15:21:13.150Z,0.65
2024-01-16T15:23:39.835Z,0.67
2024-01-16T15:26:07.290Z,0.65
2024-01-16T15:28:34.459Z,0.66
2024-01-16T15:31:07.925Z,0.65
2024-01-16T15:33:37.977Z,0.64
2024-01-16T15:36:07.107Z,0.69
2024-01-16T15:38:33.766Z,0.66
2024-01-16T15:41:00.444Z,0.66
2024-01-16T15:43:27.119Z,0.65
2024-01-16T15:45:54.126Z,0.64
2024-01-16T15:48:20.893Z,0.64
2024-01-16T15:50:47.695Z,0.62
2024-01-16T15:53:17.332Z,0.65
2024-01-16T15:55:44.462Z,0.64
2024-01-16T15:58:11.521Z,0.62
2024-01-16T16:00:38.415Z,0.62
2024-01-16T16:03:06.478Z,0.62
2024-01-16T16:05:33.536Z,0.62
2024-01-16T16:08:00.363Z,0.63
2024-01-16T16:10:28.633Z,0.71
2024-01-16T16:12:55.480Z,0.61
2024-01-16T16:15:22.975Z,0.60
2024-01-16T16:17:49.975Z,0.60
2024-01-16T16:20:16.796Z,0.59
2024-01-16T16:22:45.363Z,0.58
2024-01-16T16:25:13.059Z,0.60
2024-01-16T16:27:41.006Z,0.59
2024-01-16T16:30:09.024Z,0.59
2024-01-16T16:32:35.850Z,0.60
2024-01-16T16:35:02.614Z,0.58
2024-01-16T16:37:29.257Z,0.56
2024-01-16T16:39:55.889Z,0.56
2024-01-16T16:42:22.670Z,0.55
2024-01-16T16:44:50.676Z,0.55
2024-01-16T16:47:18.193Z,0.54
2024-01-16T16:49:44.960Z,0.54
2024-01-16T16:52:11.591Z,0.54
2024-01-16T16:54:38.213Z,0.53
2024-01-16T16:57:04.894Z,0.66
2024-01-16T16:59:31.791Z,0.51
2024-01-16T17:02:00.329Z,-0.24
2024-01-16T17:04:27.380Z,0.37
2024-01-16T17:06:56.561Z,0.44
2024-01-16T17:09:23.505Z,0.46
2024-01-16T17:11:50.417Z,0.46
2024-01-16T17:14:18.032Z,0.45
2024-01-16T17:16:44.831Z,0.46
2024-01-16T17:19:13.524Z,0.47
2024-01-16T17:21:40.606Z,0.44
2024-01-16T17:24:07.799Z,0.43
2024-01-16T17:26:35.643Z,0.41
2024-01-16T17:29:02.482Z,0.44
2024-01-16T17:31:29.431Z,0.35
2024-01-16T17:33:57.065Z,0.44
2024-01-16T17:36:25.422Z,0.35
2024-01-16T17:38:57.182Z,0.29
2024-01-16T17:41:27.304Z,0.27
2024-01-16T17:43:54.997Z,0.37
2024-01-16T17:46:21.943Z,0.29
2024-01-16T17:48:49.012Z,0.25
2024-01-16T17:51:15.790Z,0.22
2024-01-16T17:53:44.813Z,0.22
2024-01-16T17:56:13.775Z,0.18
2024-01-16T17:58:40.636Z,0.17
2024-01-16T18:01:12.321Z,0.24
2024-01-16T18:03:43.311Z,0.19
2024-01-16T18:06:12.919Z,0.19
2024-01-16T18:08:39.916Z,-1.21
2024-01-16T18:11:08.015Z,-0.12
2024-01-16T18:13:35.581Z,-0.83
2024-01-16T18:16:06.092Z,0.00
2024-01-16T18:18:34.059Z,-0.06
2024-01-16T18:21:01.253Z,0.06
2024-01-16T18:23:28.018Z,0.06
2024-01-16T18:28:22.770Z,0.07
2024-01-16T18:30:49.682Z,0.07
2024-01-16T18:33:16.616Z,0.04
2024-01-16T18:35:43.502Z,0.01
2024-01-16T18:38:10.603Z,-0.01
2024-01-16T18:40:37.239Z,-0.04
2024-01-16T18:43:05.001Z,-0.05
2024-01-16T18:45:32.968Z,-0.04
2024-01-16T18:47:59.684Z,0.01
2024-01-16T18:50:26.515Z,-0.10
2024-01-16T18:52:55.113Z,-0.07
2024-01-16T18:55:21.750Z,-0.08
2024-01-16T18:57:48.488Z,-0.92
2024-01-16T19:00:15.737Z,-0.28
2024-01-16T19:02:44.808Z,-2.38
2024-01-16T19:05:15.083Z,-0.39
2024-01-16T19:07:42.061Z,-0.25
2024-01-16T19:10:13.503Z,-0.18
2024-01-16T19:12:42.517Z,-0.34
2024-01-16T19:15:10.653Z,-0.28
2024-01-16T19:17:37.417Z,-0.24
2024-01-16T19:20:10.853Z,-0.25
2024-01-16T19:22:39.453Z,-0.30
2024-01-16T19:25:08.390Z,-0.21
2024-01-16T19:27:36.124Z,-0.30
2024-01-16T19:30:05.831Z,-0.29
2024-01-16T19:32:32.854Z,-0.34
2024-01-16T19:34:59.635Z,-0.32
2024-01-16T19:37:27.665Z,-3.53
2024-01-16T19:39:54.277Z,-1.62
2024-01-16T19:42:20.911Z,-0.69
2024-01-16T19:44:48.927Z,-0.49
2024-01-16T19:47:15.557Z,-0.43
2024-01-16T19:49:42.198Z,-4.90
2024-01-16T19:52:09.405Z,-0.98
2024-01-16T19:54:39.838Z,-0.62
2024-01-16T19:57:07.671Z,-4.86
2024-01-16T19:59:34.936Z,-1.09
2024-01-16T20:02:01.817Z,-0.86
2024-01-16T20:04:28.676Z,-0.65
2024-01-16T20:06:55.786Z,-1.11
2024-01-16T20:09:22.710Z,-3.30
2024-01-16T20:11:51.241Z,-3.96
2024-01-16T20:14:17.905Z,-1.15
2024-01-16T20:16:44.612Z,-0.78
2024-01-16T20:19:11.498Z,-0.72
2024-01-16T20:21:38.388Z,-0.73
2024-01-16T20:24:08.202Z,-0.72
2024-01-16T20:26:35.682Z,-0.67
2024-01-16T20:29:05.269Z,-1.32
2024-01-16T20:31:33.052Z,-2.47
2024-01-16T20:33:59.968Z,-1.32
2024-01-16T20:36:26.716Z,-2.14
2024-01-16T20:38:53.362Z,-0.90
2024-01-16T20:41:20.045Z,-0.81
2024-01-16T20:43:46.766Z,-0.82
2024-01-16T20:46:15.810Z,-0.79
2024-01-16T20:48:43.181Z,-0.82
2024-01-16T20:51:13.058Z,-4.85
2024-01-16T20:53:39.606Z,-1.66
2024-01-16T20:56:06.564Z,-1.05
2024-01-16T20:58:33.504Z,-1.15
2024-01-16T21:01:00.230Z,-7.19
2024-01-16T21:03:31.105Z,-2.01
2024-01-16T21:05:59.040Z,-1.18
2024-01-16T21:08:26.048Z,-1.10
2024-01-16T21:10:52.762Z,-1.75
2024-01-16T21:13:19.506Z,-1.15
2024-01-16T21:15:47.064Z,-1.70
2024-01-16T21:18:14.849Z,-1.33
2024-01-16T21:20:43.108Z,-1.56
2024-01-16T21:23:09.828Z,-1.09
2024-01-16T21:25:36.473Z,-3.03
2024-01-16T21:28:04.631Z,-1.45
2024-01-16T21:30:31.361Z,-1.16
2024-01-16T21:32:58.355Z,-1.09
2024-01-16T21:35:25.062Z,-1.12
2024-01-16T21:37:53.339Z,-7.04
2024-01-16T21:40:20.852Z,-2.30
2024-01-16T21:42:47.831Z,-1.75
2024-01-16T21:45:15.188Z,-1.70
2024-01-16T21:47:43.252Z,-1.29
2024-01-16T21:50:13.426Z,-1.22
2024-01-16T21:52:40.273Z,-1.23
2024-01-16T21:55:08.935Z,-1.23
2024-01-16T21:57:36.797Z,-1.21
2024-01-16T22:00:05.778Z,-1.22
2024-01-16T22:02:33.309Z,-3.83
2024-01-16T22:05:00.141Z,-1.70
2024-01-16T22:07:28.524Z,-1.38
2024-01-16T22:09:55.141Z,-1.29
2024-01-16T22:12:23.137Z,-1.24
2024-01-16T22:14:54.544Z,-6.43
2024-01-16T22:17:23.863Z,-4.72
2024-01-16T22:19:50.590Z,-2.17
2024-01-16T22:22:17.299Z,-1.73
2024-01-16T22:24:43.937Z,-1.54
2024-01-16T22:27:10.605Z,-2.38
2024-01-16T22:29:38.892Z,-1.74
2024-01-16T22:32:05.751Z,-1.72
2024-01-16T22:34:32.500Z,-1.46
2024-01-16T22:36:59.224Z,-1.42
2024-01-16T22:39:27.789Z,-3.10
2024-01-16T22:41:54.481Z,-2.21
2024-01-16T22:44:23.211Z,-1.76
2024-01-16T22:46:51.370Z,-1.53
2024-01-16T22:49:18.116Z,-1.51
2024-01-16T22:51:44.836Z,-4.03
2024-01-16T22:54:11.580Z,-6.76
2024-01-16T22:56:38.451Z,-2.63
2024-01-16T22:59:05.474Z,-1.86
2024-01-16T23:01:32.369Z,-1.72
2024-01-16T23:04:00.808Z,-1.71
2024-01-16T23:06:28.973Z,-1.68
2024-01-16T23:08:56.034Z,-2.61
2024-01-16T23:11:24.007Z,-1.84
2024-01-16T23:13:51.116Z,-1.63
2024-01-16T23:16:17.758Z,-1.73
2024-01-16T23:18:45.808Z,-1.62
2024-01-16T23:21:14.543Z,-2.00
2024-01-16T23:23:43.398Z,-1.62
2024-01-16T23:26:11.319Z,-1.62
2024-01-16T23:28:38.845Z,-1.53
2024-01-16T23:31:09.347Z,-1.55
2024-01-16T23:33:36.403Z,-1.52
2024-01-16T23:36:03.405Z,-1.55
2024-01-16T23:38:31.739Z,-2.30
2024-01-16T23:40:59.075Z,-1.64
2024-01-16T23:43:28.490Z,-2.11
2024-01-16T23:46:01.212Z,-1.62
2024-01-16T23:48:28.071Z,-2.49
2024-01-16T23:50:55.062Z,-2.61
2024-01-16T23:53:21.804Z,-1.90
2024-01-16T23:55:52.145Z,-1.65
2024-01-16T23:58:18.873Z,-2.61
